Thursday, August 16, 2018, 9:58 AM EDT
Back to Local

KACY, Atlantic City International

Location: Absecon, NJ, United States Lat: 39.467
Local Time: 9:58 AM EDT (13:58 GMT) Lon: -74.583
Time Zone: US/Eastern Elev: 75 ft

Show me the last for .
Show Decoded

2018-08-16 08:54 METAR KACY 161254Z 29005KT 10SM CLR 27/23 A3009 RMK AO2 SLP188 T02720228 =
2018-08-16 07:54 METAR KACY 161154Z 26005KT 9SM CLR 26/22 A3008 RMK AO2 SLP186 T02560222 10256
                 20233 53017 =
2018-08-16 06:54 METAR KACY 161054Z 24004KT 8SM CLR 24/22 A3007 RMK AO2 SLP180 T02440222 =
2018-08-16 05:54 METAR KACY 160954Z 26003KT 9SM CLR 24/22 A3005 RMK AO2 SLP173 T02390217 =
2018-08-16 04:54 METAR KACY 160854Z 29003KT 10SM CLR 24/22 A3003 RMK AO2 SLP169 T02390217 55000 =
2018-08-16 03:54 METAR KACY 160754Z 25004KT 6SM HZ CLR 24/21 A3003 RMK AO2 SLP167 T02440211 =
2018-08-16 02:54 METAR KACY 160654Z 24005KT 8SM CLR 26/21 A3003 RMK AO2 SLP168 T02560211 =
2018-08-16 01:54 METAR KACY 160554Z 24005KT 6SM HZ CLR 26/22 A3003 RMK AO2 SLP168 T02560217 10294
                 20256 51004 =
2018-08-16 00:54 METAR KACY 160454Z 25004KT 6SM HZ CLR 26/22 A3003 RMK AO2 SLP168 T02560217
                 403280233 =
2018-08-15 23:54 METAR KACY 160354Z 25004KT 9SM CLR 26/22 A3002 RMK AO2 SLP166 T02610222 =
2018-08-15 22:54 METAR KACY 160254Z 24005KT 10SM CLR 27/22 A3002 RMK AO2 SLP165 T02670217 51014 =
2018-08-15 21:54 METAR KACY 160154Z 26007KT 10SM CLR 27/22 A3002 RMK AO2 SLP163 T02670217 =
2018-08-15 20:54 METAR KACY 160054Z 23004KT 8SM CLR 28/21 A3000 RMK AO2 SLP158 T02780211 =
2018-08-15 19:56 METAR KACY 152356Z 24005KT 10SM CLR 29/21 A2998 =
2018-08-15 19:54 METAR KACY 152354Z 24004KT 10SM CLR 29/21 A2998 RMK AO2 RAE2257B35E37 SLP150
                 P0000 60000 T02940206 10328 20294 53008 =
2018-08-15 18:54 METAR KACY 152254Z 25008KT 10SM -RA CLR 31/20 A2996 RMK AO2 RAB2155 SLP145 P0000
                 T03060200 =
2018-08-15 17:54 METAR KACY 152154Z 27009KT 10SM CLR 32/20 A2996 RMK AO2 RAE54 SLP145 P0000
                 T03170200 =
2018-08-15 16:54 METAR KACY 152054Z 28010G22KT 10SM -RA CLR 32/19 A2995 RMK AO2 RAB47 SLP142
                 P0000 60000 T03220189 58004 =
2018-08-15 15:54 METAR KACY 151954Z 28010KT 10SM FEW050 32/20 A2995 RMK AO2 SLP142 T03220200 =
2018-08-15 14:54 METAR KACY 151854Z 28012KT 10SM FEW049 32/20 A2996 RMK AO2 SLP145 T03170200 =
2018-08-15 13:54 METAR KACY 151754Z 28009KT 10SM FEW042 32/21 A2996 RMK AO2 SLP146 T03170211
                 10322 20239 56002 =
2018-08-15 12:54 METAR KACY 151654Z 28009KT 10SM CLR 31/21 A2997 RMK AO2 SLP146 T03110211 =
2018-08-15 11:54 METAR KACY 151554Z 24006KT 10SM CLR 30/21 A2997 RMK AO2 SLP147 T03000211 =
2018-08-15 10:54 METAR KACY 151454Z 27007KT 10SM CLR 29/21 A2997 RMK AO2 SLP148 T02890211 51009 =

Support USWX by starting your Amazon purchase here.